createdAt,value
2023-01-07T00:02:54.585Z,7.42
2023-01-07T00:06:07.087Z,7.41
2023-01-07T00:09:17.762Z,7.36
2023-01-07T00:12:25.945Z,7.31
2023-01-07T00:15:34.299Z,7.34
2023-01-07T00:18:44.479Z,7.41
2023-01-07T00:21:55.045Z,7.41
2023-01-07T00:25:03.322Z,7.42
2023-01-07T00:28:11.722Z,7.44
2023-01-07T00:31:25.533Z,7.47
2023-01-07T00:34:34.399Z,7.53
2023-01-07T00:37:52.296Z,7.37
2023-01-07T00:41:00.660Z,7.30
2023-01-07T00:44:10.238Z,7.32
2023-01-07T00:47:18.435Z,7.33
2023-01-07T00:50:30.376Z,7.29
2023-01-07T00:53:40.182Z,7.36
2023-01-07T00:56:48.492Z,7.37
2023-01-07T00:59:57.426Z,7.36
2023-01-07T01:03:06.488Z,7.36
2023-01-07T01:06:17.037Z,7.48
2023-01-07T01:09:27.716Z,7.45
2023-01-07T01:12:36.433Z,7.35
2023-01-07T01:15:46.111Z,7.19
2023-01-07T01:18:54.344Z,7.17
2023-01-07T01:22:02.637Z,7.15
2023-01-07T01:25:15.117Z,7.16
2023-01-07T01:28:23.325Z,7.17
2023-01-07T01:31:31.982Z,7.21
2023-01-07T01:34:40.273Z,7.25
2023-01-07T01:37:48.631Z,7.24
2023-01-07T01:40:58.225Z,7.28
2023-01-07T01:44:45.178Z,7.26
2023-01-07T01:48:06.237Z,7.27
2023-01-07T01:51:19.568Z,7.19
2023-01-07T01:54:29.250Z,7.22
2023-01-07T01:57:41.249Z,7.18
2023-01-07T02:00:52.464Z,7.13
2023-01-07T02:04:05.617Z,7.09
2023-01-07T02:07:18.386Z,7.18
2023-01-07T02:10:33.184Z,7.12
2023-01-07T02:14:04.351Z,7.02
2023-01-07T02:17:24.603Z,7.12
2023-01-07T02:20:57.380Z,7.10
2023-01-07T02:24:54.758Z,7.08
2023-01-07T02:28:33.128Z,7.02
2023-01-07T02:32:15.694Z,6.95
2023-01-07T02:35:46.476Z,6.92
2023-01-07T02:39:13.219Z,6.88
2023-01-07T02:42:33.570Z,6.89
2023-01-07T02:50:30.590Z,6.85
2023-01-07T02:53:41.719Z,6.81
2023-01-07T02:57:21.161Z,6.62
2023-01-07T03:00:57.485Z,6.41
2023-01-07T03:04:28.695Z,6.32
2023-01-07T03:07:56.069Z,6.14
2023-01-07T03:11:08.682Z,6.26
2023-01-07T03:14:21.660Z,6.31
2023-01-07T03:17:41.126Z,6.37
2023-01-07T03:20:57.264Z,6.30
2023-01-07T03:24:09.306Z,6.22
2023-01-07T03:27:23.175Z,6.15
2023-01-07T03:30:33.064Z,5.94
2023-01-07T03:33:50.343Z,5.79
2023-01-07T03:37:04.740Z,5.64
2023-01-07T03:40:15.503Z,5.61
2023-01-07T03:43:24.467Z,5.54
2023-01-07T03:46:35.917Z,5.52
2023-01-07T03:49:44.103Z,5.65
2023-01-07T03:52:52.291Z,5.46
2023-01-07T03:56:03.574Z,5.46
2023-01-07T03:59:12.159Z,5.49
2023-01-07T04:02:20.486Z,5.49
2023-01-07T04:05:29.362Z,5.36
2023-01-07T04:08:38.037Z,5.08
2023-01-07T04:11:48.278Z,5.05
2023-01-07T04:14:58.472Z,5.05
2023-01-07T04:18:08.617Z,4.98
2023-01-07T04:21:16.751Z,4.94
2023-01-07T04:24:24.971Z,4.90
2023-01-07T04:27:35.332Z,4.82
2023-01-07T04:30:44.288Z,4.74
2023-01-07T04:33:52.566Z,4.71
2023-01-07T04:37:01.295Z,4.62
2023-01-07T04:40:11.327Z,4.59
2023-01-07T04:43:21.586Z,4.49
2023-01-07T04:46:29.893Z,4.39
2023-01-07T04:49:39.406Z,4.33
2023-01-07T04:52:48.305Z,4.13
2023-01-07T04:55:57.022Z,3.91
2023-01-07T04:59:06.573Z,3.96
2023-01-07T05:02:14.861Z,3.84
2023-01-07T05:05:23.867Z,3.73
2023-01-07T05:08:32.288Z,3.65
2023-01-07T05:11:40.591Z,3.53
2023-01-07T05:14:50.762Z,3.69
2023-01-07T05:18:00.037Z,3.52
2023-01-07T05:21:10.489Z,3.41
2023-01-07T05:24:19.888Z,3.44
2023-01-07T05:27:28.121Z,3.40
2023-01-07T05:30:37.721Z,3.41
2023-01-07T05:33:46.004Z,3.41
2023-01-07T05:36:54.794Z,3.32
2023-01-07T05:40:02.922Z,3.28
2023-01-07T05:43:11.305Z,3.19
2023-01-07T05:46:21.229Z,3.18
2023-01-07T05:49:29.576Z,3.13
2023-01-07T05:52:37.799Z,3.04
2023-01-07T05:55:49.041Z,2.99
2023-01-07T05:58:59.634Z,3.00
2023-01-07T06:02:11.873Z,2.82
2023-01-07T06:05:19.977Z,2.80
2023-01-07T06:08:28.069Z,2.78
2023-01-07T06:11:36.182Z,2.75
2023-01-07T06:14:44.271Z,2.65
2023-01-07T06:17:53.703Z,2.45
2023-01-07T06:21:01.930Z,2.25
2023-01-07T06:24:11.427Z,2.34
2023-01-07T06:27:19.691Z,2.35
2023-01-07T06:30:28.081Z,2.37
2023-01-07T06:33:38.316Z,2.32
2023-01-07T06:36:46.472Z,2.20
2023-01-07T06:39:54.677Z,2.22
2023-01-07T06:43:03.094Z,2.04
2023-01-07T06:46:12.802Z,2.04
2023-01-07T06:49:22.329Z,1.95
2023-01-07T06:52:30.653Z,1.84
2023-01-07T06:55:39.009Z,1.93
2023-01-07T06:58:47.132Z,1.89
2023-01-07T07:01:55.494Z,1.87
2023-01-07T07:05:05.532Z,1.79
2023-01-07T07:08:13.732Z,1.76
2023-01-07T07:11:21.863Z,1.75
2023-01-07T07:14:29.948Z,1.71
2023-01-07T07:17:38.016Z,1.65
2023-01-07T07:20:49.291Z,1.72
2023-01-07T07:23:57.667Z,1.76
2023-01-07T07:27:05.805Z,1.82
2023-01-07T07:30:15.690Z,1.72
2023-01-07T07:33:23.933Z,1.74
2023-01-07T07:36:34.024Z,1.67
2023-01-07T07:39:42.221Z,1.63
2023-01-07T07:43:11.714Z,1.51
2023-01-07T07:46:18.856Z,1.56
2023-01-07T07:49:26.989Z,1.67
2023-01-07T07:52:36.939Z,1.71
2023-01-07T07:55:46.526Z,1.86
2023-01-07T07:58:54.693Z,1.83
2023-01-07T08:02:02.912Z,2.03
2023-01-07T08:05:12.722Z,2.10
2023-01-07T08:08:22.508Z,2.17
2023-01-07T08:11:30.665Z,2.23
2023-01-07T08:14:38.729Z,2.26
2023-01-07T08:17:47.097Z,2.37
2023-01-07T08:20:55.851Z,2.56
2023-01-07T08:24:06.656Z,2.64
2023-01-07T08:27:15.111Z,2.66
2023-01-07T08:30:23.677Z,2.80
2023-01-07T08:33:37.319Z,2.82
2023-01-07T08:36:45.594Z,2.94
2023-01-07T08:39:55.192Z,3.03
2023-01-07T08:43:06.698Z,3.21
2023-01-07T08:46:14.887Z,3.27
2023-01-07T08:49:23.979Z,3.32
2023-01-07T08:52:32.059Z,3.40
2023-01-07T08:55:41.502Z,3.58
2023-01-07T08:58:49.833Z,3.75
2023-01-07T09:01:58.075Z,3.84
2023-01-07T09:05:08.198Z,3.99
2023-01-07T09:08:16.292Z,4.18
2023-01-07T09:11:25.805Z,4.23
2023-01-07T09:14:34.264Z,4.42
2023-01-07T09:17:42.378Z,4.52
2023-01-07T09:20:50.655Z,4.56
2023-01-07T09:23:58.857Z,4.80
2023-01-07T09:27:08.290Z,4.91
2023-01-07T09:30:16.901Z,5.03
2023-01-07T09:33:25.076Z,5.24
2023-01-07T09:36:33.638Z,5.30
2023-01-07T09:39:41.888Z,5.32
2023-01-07T09:43:01.926Z,5.49
2023-01-07T09:46:13.335Z,5.66
2023-01-07T09:49:26.986Z,5.68
2023-01-07T09:52:40.943Z,5.78
2023-01-07T09:56:10.737Z,5.85
2023-01-07T09:59:22.595Z,5.96
2023-01-07T10:02:45.188Z,5.98
2023-01-07T10:06:08.980Z,6.20
2023-01-07T10:09:36.659Z,6.35
2023-01-07T10:12:59.859Z,6.56
2023-01-07T10:16:21.145Z,6.58
2023-01-07T10:19:44.355Z,6.76
2023-01-07T10:23:00.372Z,6.87
2023-01-07T10:26:21.225Z,7.03
2023-01-07T10:29:36.997Z,7.09
2023-01-07T10:32:51.003Z,7.19
2023-01-07T10:36:16.569Z,7.38
2023-01-07T10:39:36.152Z,7.43
2023-01-07T10:42:55.231Z,7.46
2023-01-07T10:46:23.120Z,7.53
2023-01-07T10:49:55.703Z,7.65
2023-01-07T10:53:19.240Z,7.64
2023-01-07T10:56:33.121Z,7.65
2023-01-07T10:59:51.044Z,7.70
2023-01-07T11:03:00.845Z,7.76
2023-01-07T11:06:19.017Z,7.78
2023-01-07T11:09:32.923Z,7.70
2023-01-07T11:12:46.757Z,7.69
2023-01-07T11:16:04.405Z,7.77
2023-01-07T11:19:13.835Z,7.81
2023-01-07T11:22:37.523Z,7.77
2023-01-07T11:25:46.627Z,7.89
2023-01-07T11:28:57.065Z,7.98
2023-01-07T11:32:07.313Z,8.00
2023-01-07T11:35:23.120Z,8.02
2023-01-07T11:38:36.661Z,8.02
2023-01-07T11:41:56.375Z,8.10
2023-01-07T11:45:17.459Z,8.14
2023-01-07T11:48:31.160Z,8.18
2023-01-07T11:51:42.900Z,8.14
2023-01-07T11:54:53.230Z,8.18
2023-01-07T11:58:29.992Z,8.15
2023-01-07T12:01:30.898Z,8.12
2023-01-07T12:04:40.495Z,8.19
2023-01-07T12:07:51.183Z,8.26
2023-01-07T12:11:09.258Z,8.31
2023-01-07T12:14:27.825Z,8.30
2023-01-07T12:17:37.132Z,8.32
2023-01-07T12:21:26.733Z,8.31
2023-01-07T12:25:24.520Z,8.43
2023-01-07T12:28:54.399Z,8.48
2023-01-07T12:32:22.978Z,8.55
2023-01-07T12:35:36.629Z,8.75
2023-01-07T12:38:52.470Z,9.67
2023-01-07T12:42:10.210Z,10.90
2023-01-07T12:45:36.303Z,11.46
2023-01-07T12:49:02.470Z,11.92
2023-01-07T12:52:21.553Z,11.57
2023-01-07T12:55:35.779Z,10.31
2023-01-07T12:58:50.406Z,9.67
2023-01-07T13:02:18.191Z,9.16
2023-01-07T13:05:33.510Z,8.91
2023-01-07T13:08:51.379Z,8.78
2023-01-07T13:12:41.910Z,8.64
2023-01-07T13:15:52.901Z,8.52
2023-01-07T13:19:02.978Z,8.41
2023-01-07T13:22:21.265Z,8.45
2023-01-07T13:25:52.926Z,8.34
2023-01-07T13:29:26.936Z,8.39
2023-01-07T13:33:06.368Z,8.37
2023-01-07T13:36:31.567Z,8.28
2023-01-07T13:40:07.998Z,8.34
2023-01-07T13:43:41.076Z,8.26
2023-01-07T13:46:50.287Z,8.19
2023-01-07T13:50:03.364Z,8.17
2023-01-07T13:53:46.296Z,8.19
2023-01-07T13:56:54.756Z,8.16
2023-01-07T14:00:06.189Z,8.09
2023-01-07T14:03:43.410Z,8.25
2023-01-07T14:06:53.690Z,8.05
2023-01-07T14:10:03.343Z,8.17
2023-01-07T14:13:37.848Z,8.03
2023-01-07T14:16:56.788Z,8.01
2023-01-07T14:20:18.051Z,7.84
2023-01-07T14:23:39.145Z,7.86
2023-01-07T14:27:00.663Z,8.05
2023-01-07T14:30:21.642Z,7.80
2023-01-07T14:33:39.181Z,7.75
2023-01-07T14:37:17.429Z,7.77
2023-01-07T14:41:05.011Z,7.58
2023-01-07T14:44:31.605Z,7.40
2023-01-07T14:47:55.651Z,7.56
2023-01-07T14:51:54.875Z,7.47
2023-01-07T14:55:37.716Z,7.19
2023-01-07T14:59:26.197Z,7.05
2023-01-07T15:03:36.672Z,6.94
2023-01-07T15:06:46.440Z,6.79
2023-01-07T15:10:18.617Z,6.71
2023-01-07T15:13:46.134Z,6.67
2023-01-07T15:16:55.397Z,6.53
2023-01-07T15:20:10.290Z,6.40
2023-01-07T15:23:27.752Z,6.25
2023-01-07T15:26:50.268Z,6.04
2023-01-07T15:30:08.285Z,6.01
2023-01-07T15:33:39.092Z,5.97
2023-01-07T15:36:52.801Z,5.81
2023-01-07T15:40:02.156Z,5.63
2023-01-07T15:43:24.248Z,5.47
2023-01-07T15:46:34.424Z,5.38
2023-01-07T15:49:43.170Z,5.16
2023-01-07T15:52:56.683Z,4.96
2023-01-07T15:56:11.764Z,4.82
2023-01-07T15:59:28.042Z,4.65
2023-01-07T16:02:43.085Z,4.52
2023-01-07T16:05:53.508Z,4.69
2023-01-07T16:09:18.813Z,4.55
2023-01-07T16:12:34.072Z,4.14
2023-01-07T16:15:42.875Z,3.93
2023-01-07T16:18:56.627Z,3.78
2023-01-07T16:22:06.089Z,3.68
2023-01-07T16:25:30.850Z,3.56
2023-01-07T16:28:46.765Z,3.48
2023-01-07T16:31:56.582Z,3.36
2023-01-07T16:35:09.212Z,3.34
2023-01-07T16:38:21.061Z,3.28
2023-01-07T16:41:31.975Z,3.21
2023-01-07T16:45:02.381Z,3.14
2023-01-07T16:48:21.710Z,3.10
2023-01-07T16:51:40.623Z,3.05
2023-01-07T16:54:50.147Z,3.02
2023-01-07T16:58:00.022Z,2.93
2023-01-07T17:01:12.329Z,2.85
2023-01-07T17:04:27.815Z,2.79
2023-01-07T17:07:39.135Z,2.76
2023-01-07T17:10:59.083Z,2.63
2023-01-07T17:14:51.445Z,2.79
2023-01-07T17:18:30.621Z,2.50
2023-01-07T17:21:43.578Z,2.45
2023-01-07T17:24:52.052Z,2.40
2023-01-07T17:28:09.632Z,2.34
2023-01-07T17:31:19.913Z,2.29
2023-01-07T17:34:28.460Z,2.35
2023-01-07T17:37:37.369Z,2.43
2023-01-07T17:40:46.464Z,2.31
2023-01-07T17:43:53.689Z,2.24
2023-01-07T17:47:03.247Z,2.41
2023-01-07T17:50:14.991Z,2.30
2023-01-07T17:53:27.265Z,2.16
2023-01-07T17:56:35.791Z,2.14
2023-01-07T17:59:47.882Z,2.11
2023-01-07T18:02:59.225Z,1.84
2023-01-07T18:06:18.622Z,1.99
2023-01-07T18:09:27.767Z,2.18
2023-01-07T18:12:36.332Z,1.89
2023-01-07T18:15:44.773Z,1.85
2023-01-07T18:18:56.556Z,1.78
2023-01-07T18:22:04.611Z,1.76
2023-01-07T18:25:19.857Z,1.87
2023-01-07T18:28:28.150Z,1.87
2023-01-07T18:31:43.050Z,1.95
2023-01-07T18:34:53.481Z,1.96
2023-01-07T18:38:02.427Z,2.02
2023-01-07T18:41:10.880Z,1.95
2023-01-07T18:44:19.638Z,1.82
2023-01-07T18:47:27.821Z,1.70
2023-01-07T18:50:41.199Z,1.70
2023-01-07T18:53:49.473Z,1.60
2023-01-07T18:56:58.024Z,1.37
2023-01-07T19:00:08.118Z,1.21
2023-01-07T19:03:17.787Z,1.25
2023-01-07T19:06:28.477Z,1.42
2023-01-07T19:09:37.416Z,1.50
2023-01-07T19:12:46.809Z,1.44
2023-01-07T19:15:55.286Z,1.44
2023-01-07T19:19:04.023Z,1.55
2023-01-07T19:22:15.698Z,1.57
2023-01-07T19:25:24.162Z,1.46
2023-01-07T19:28:32.940Z,1.61
2023-01-07T19:31:45.519Z,1.52
2023-01-07T19:34:54.132Z,1.51
2023-01-07T19:38:03.821Z,1.46
2023-01-07T19:41:15.532Z,1.43
2023-01-07T19:44:23.733Z,1.43
2023-01-07T19:47:32.467Z,1.36
2023-01-07T19:50:40.736Z,1.33
2023-01-07T19:53:54.115Z,1.34
2023-01-07T19:57:02.551Z,1.34
2023-01-07T20:00:12.732Z,1.35
2023-01-07T20:03:20.948Z,1.48
2023-01-07T20:06:31.979Z,1.47
2023-01-07T20:09:41.657Z,1.42
2023-01-07T20:12:50.221Z,1.38
2023-01-07T20:16:04.612Z,1.33
2023-01-07T20:19:13.668Z,1.38
2023-01-07T20:22:21.959Z,1.48
2023-01-07T20:25:31.752Z,1.52
2023-01-07T20:28:40.407Z,1.53
2023-01-07T20:31:50.073Z,1.45
2023-01-07T20:34:58.506Z,1.39
2023-01-07T20:38:09.358Z,1.32
2023-01-07T20:41:21.422Z,1.38
2023-01-07T20:44:29.940Z,1.49
2023-01-07T20:47:38.095Z,1.57
2023-01-07T20:50:46.337Z,1.75
2023-01-07T20:53:54.702Z,1.85
2023-01-07T20:57:04.557Z,1.71
2023-01-07T21:00:14.444Z,1.79
2023-01-07T21:03:22.681Z,1.72
2023-01-07T21:06:31.480Z,1.69
2023-01-07T21:09:40.288Z,1.73
2023-01-07T21:12:50.992Z,1.73
2023-01-07T21:16:04.130Z,1.87
2023-01-07T21:19:12.470Z,1.91
2023-01-07T21:22:20.704Z,1.87
2023-01-07T21:25:29.219Z,1.80
2023-01-07T21:28:38.735Z,1.59
2023-01-07T21:31:46.941Z,1.56
2023-01-07T21:34:55.282Z,1.52
2023-01-07T21:38:03.503Z,1.55
2023-01-07T21:41:14.659Z,1.50
2023-01-07T21:44:24.180Z,1.59
2023-01-07T21:47:32.535Z,1.66
2023-01-07T21:50:40.815Z,1.64
2023-01-07T21:53:49.364Z,1.63
2023-01-07T21:56:57.784Z,1.52
2023-01-07T22:00:09.392Z,1.40
2023-01-07T22:03:23.485Z,1.34
2023-01-07T22:06:35.089Z,1.20
2023-01-07T22:09:43.849Z,1.20
2023-01-07T22:12:52.104Z,1.38
2023-01-07T22:16:01.649Z,1.25
2023-01-07T22:19:10.851Z,1.17
2023-01-07T22:22:20.932Z,1.16
2023-01-07T22:25:29.127Z,1.13
2023-01-07T22:28:38.552Z,1.08
2023-01-07T22:31:50.943Z,1.31
2023-01-07T22:34:59.469Z,1.15
2023-01-07T22:38:08.101Z,1.01
2023-01-07T22:41:16.666Z,0.93
2023-01-07T22:44:30.979Z,1.08
2023-01-07T22:47:46.258Z,0.95
2023-01-07T22:51:01.502Z,0.81
2023-01-07T22:54:12.511Z,0.76
2023-01-07T22:57:21.015Z,0.80
2023-01-07T23:00:47.941Z,0.77
2023-01-07T23:03:57.551Z,0.64
2023-01-07T23:07:06.224Z,0.68
2023-01-07T23:10:14.526Z,0.70
2023-01-07T23:13:23.855Z,0.62
2023-01-07T23:16:32.122Z,0.53
2023-01-07T23:19:41.767Z,0.49
2023-01-07T23:22:50.065Z,0.44
2023-01-07T23:25:58.459Z,0.45
2023-01-07T23:29:06.989Z,0.43
2023-01-07T23:32:15.290Z,0.33
2023-01-07T23:35:24.855Z,0.43
2023-01-07T23:38:33.085Z,0.36
2023-01-07T23:41:41.267Z,0.30
2023-01-07T23:44:49.474Z,0.26
2023-01-07T23:47:57.745Z,0.21
2023-01-07T23:51:11.894Z,0.27
2023-01-07T23:54:20.166Z,0.22
2023-01-07T23:57:29.355Z,0.20
